createdAt,value
2022-09-05T00:02:34.263Z,4.83
2022-09-05T00:05:38.568Z,4.67
2022-09-05T00:08:25.892Z,5.07
2022-09-05T00:11:39.693Z,4.60
2022-09-05T00:14:34.377Z,4.70
2022-09-05T00:17:21.708Z,4.80
2022-09-05T00:24:20.904Z,5.20
2022-09-05T00:24:34.044Z,5.13
2022-09-05T00:26:04.269Z,4.97
2022-09-05T00:28:40.071Z,5.30
2022-09-05T00:31:55.308Z,5.67
2022-09-05T00:34:47.531Z,5.17
2022-09-05T00:37:32.105Z,5.20
2022-09-05T00:40:20.524Z,5.03
2022-09-05T00:42:51.262Z,4.67
2022-09-05T00:45:33.242Z,6.30
2022-09-05T00:48:11.941Z,5.87
2022-09-05T00:50:59.004Z,5.67
2022-09-05T00:53:38.631Z,6.47
2022-09-05T00:56:23.766Z,6.20
2022-09-05T00:58:59.701Z,6.23
2022-09-05T01:01:32.401Z,6.10
2022-09-05T01:04:30.758Z,5.93
2022-09-05T01:07:18.695Z,6.40
2022-09-05T01:10:04.158Z,6.43
2022-09-05T01:13:03.207Z,5.90
2022-09-05T01:15:37.899Z,6.00
2022-09-05T01:18:30.300Z,5.80
2022-09-05T01:21:34.941Z,6.03
2022-09-05T01:24:48.975Z,5.53
2022-09-05T01:29:13.715Z,5.53
2022-09-05T01:30:43.135Z,5.00
2022-09-05T01:33:20.555Z,5.33
2022-09-05T01:36:27.508Z,5.60
2022-09-05T01:40:12.071Z,5.47
2022-09-05T01:41:59.382Z,5.37
2022-09-05T01:44:44.470Z,6.10
2022-09-05T01:47:38.194Z,5.60
2022-09-05T01:50:35.159Z,5.87
2022-09-05T01:53:25.831Z,5.80
2022-09-05T01:56:23.962Z,5.67
2022-09-05T01:59:04.019Z,5.67
2022-09-05T02:01:42.846Z,5.47
2022-09-05T02:04:47.763Z,5.03
2022-09-05T02:07:31.745Z,5.50
2022-09-05T02:10:26.841Z,4.97
2022-09-05T02:13:03.604Z,5.33
2022-09-05T02:15:59.282Z,5.17
2022-09-05T02:18:44.322Z,5.27
2022-09-05T02:21:22.226Z,4.97
2022-09-05T02:24:03.827Z,5.40
2022-09-05T02:26:38.073Z,5.17
2022-09-05T02:29:28.407Z,5.40
2022-09-05T02:32:02.971Z,5.10
2022-09-05T02:34:41.323Z,5.27
2022-09-05T02:37:22.849Z,5.07
2022-09-05T02:45:05.939Z,5.60
2022-09-05T02:45:07.730Z,5.10
2022-09-05T02:46:08.795Z,5.40
2022-09-05T02:48:52.686Z,5.60
2022-09-05T02:57:29.794Z,5.07
2022-09-05T02:57:32.899Z,4.57
2022-09-05T02:58:05.333Z,4.77
2022-09-05T03:00:25.653Z,5.70
2022-09-05T03:03:16.121Z,5.57
2022-09-05T03:05:51.447Z,5.83
2022-09-05T03:08:36.957Z,5.60
2022-09-05T03:11:38.407Z,7.00
2022-09-05T03:14:38.680Z,7.80
2022-09-05T03:17:42.784Z,8.47
2022-09-05T03:20:44.160Z,9.70
2022-09-05T03:23:43.296Z,10.07
2022-09-05T03:26:46.886Z,11.00
2022-09-05T03:29:42.696Z,10.67
2022-09-05T03:32:48.828Z,11.03
2022-09-05T03:35:49.924Z,9.33
2022-09-05T03:39:14.986Z,10.10
2022-09-05T03:42:15.281Z,10.47
2022-09-05T03:44:54.502Z,9.73
2022-09-05T03:48:27.922Z,11.50
2022-09-05T03:55:33.719Z,11.90
2022-09-05T03:57:18.917Z,10.50
2022-09-05T03:57:41.691Z,10.93
2022-09-05T04:00:23.633Z,10.03
2022-09-05T04:08:05.930Z,10.43
2022-09-05T04:08:16.078Z,11.37
2022-09-05T04:08:50.435Z,11.80
2022-09-05T04:11:29.092Z,11.37
2022-09-05T04:14:03.651Z,12.93
2022-09-05T04:16:34.568Z,12.03
2022-09-05T04:19:13.220Z,12.10
2022-09-05T04:21:48.467Z,13.57
2022-09-05T04:24:29.179Z,11.97
2022-09-05T04:27:08.396Z,12.10
2022-09-05T04:29:50.464Z,13.07
2022-09-05T04:32:29.856Z,12.00
2022-09-05T04:35:11.670Z,13.70
2022-09-05T04:37:52.674Z,13.77
2022-09-05T04:41:00.308Z,13.10
2022-09-05T04:43:35.518Z,13.10
2022-09-05T04:46:20.222Z,13.43
2022-09-05T04:48:57.604Z,12.83
2022-09-05T04:51:59.913Z,12.30
2022-09-05T04:54:35.619Z,12.63
2022-09-05T04:57:16.985Z,12.07
2022-09-05T05:02:51.983Z,12.50
2022-09-05T05:06:12.916Z,13.10
2022-09-05T05:06:19.943Z,12.47
2022-09-05T05:08:47.515Z,12.30
2022-09-05T05:16:18.610Z,13.37
2022-09-05T05:17:59.916Z,13.53
2022-09-05T05:18:06.546Z,13.53
2022-09-05T05:20:42.674Z,12.43
2022-09-05T05:22:59.229Z,12.57
2022-09-05T05:25:46.859Z,11.50
2022-09-05T05:28:24.082Z,11.00
2022-09-05T05:30:59.833Z,11.33
2022-09-05T05:33:32.945Z,10.40
2022-09-05T05:36:05.174Z,9.90
2022-09-05T05:38:41.069Z,9.93
2022-09-05T05:41:18.981Z,10.03
2022-09-05T05:43:48.439Z,10.17
2022-09-05T05:46:40.932Z,9.23
2022-09-05T05:49:27.819Z,9.97
2022-09-05T05:52:20.542Z,9.80
2022-09-05T05:55:09.657Z,9.47
2022-09-05T05:58:03.557Z,9.10
2022-09-05T06:00:51.975Z,8.87
2022-09-05T06:03:55.107Z,8.43
2022-09-05T06:06:35.861Z,8.33
2022-09-05T06:14:52.457Z,7.30
2022-09-05T06:14:54.844Z,6.53
2022-09-05T06:16:41.094Z,5.60
2022-09-05T06:20:37.156Z,4.80
2022-09-05T06:22:54.818Z,5.17
2022-09-05T06:25:58.804Z,5.03
2022-09-05T06:28:44.371Z,4.37
2022-09-05T06:31:29.783Z,4.17
2022-09-05T06:34:33.282Z,4.30
2022-09-05T06:37:16.630Z,4.37
2022-09-05T06:40:03.707Z,4.40
2022-09-05T06:42:43.242Z,4.30
2022-09-05T06:45:38.641Z,4.10
2022-09-05T06:48:23.943Z,3.63
2022-09-05T06:51:46.519Z,3.70
2022-09-05T06:55:02.179Z,3.80
2022-09-05T06:57:51.167Z,4.07
2022-09-05T07:00:24.450Z,3.80
2022-09-05T07:03:16.283Z,3.80
2022-09-05T07:05:55.805Z,3.67
2022-09-05T07:08:37.222Z,3.83
2022-09-05T07:11:16.690Z,3.50
2022-09-05T07:13:57.176Z,3.20
2022-09-05T07:16:43.572Z,3.53
2022-09-05T07:19:33.180Z,3.23
2022-09-05T07:22:29.380Z,2.87
2022-09-05T07:25:08.957Z,3.53
2022-09-05T07:28:26.715Z,3.00
2022-09-05T07:30:34.055Z,3.03
2022-09-05T07:33:04.531Z,3.30
2022-09-05T07:35:42.219Z,3.40
2022-09-05T07:38:16.058Z,3.30
2022-09-05T07:40:51.561Z,3.17
2022-09-05T07:43:25.286Z,3.13
2022-09-05T07:46:11.697Z,3.00
2022-09-05T07:48:44.114Z,3.00
2022-09-05T07:54:56.221Z,2.87
2022-09-05T07:57:01.479Z,2.73
2022-09-05T07:57:31.193Z,2.80
2022-09-05T08:00:06.940Z,2.60
2022-09-05T08:02:37.357Z,2.40
2022-09-05T08:05:07.471Z,2.80
2022-09-05T08:07:48.742Z,2.55
2022-09-05T08:10:35.741Z,2.60
2022-09-05T08:13:23.468Z,2.40
2022-09-05T08:16:12.851Z,2.30
2022-09-05T08:18:47.704Z,2.38
2022-09-05T08:21:27.762Z,2.38
2022-09-05T08:24:09.093Z,2.15
2022-09-05T08:26:47.426Z,2.15
2022-09-05T08:29:27.636Z,2.10
2022-09-05T08:32:08.598Z,2.10
2022-09-05T08:34:45.611Z,2.20
2022-09-05T08:37:21.017Z,2.20
2022-09-05T08:40:02.448Z,2.75
2022-09-05T08:43:35.239Z,2.10
2022-09-05T08:46:47.656Z,2.50
2022-09-05T08:48:46.361Z,2.22
2022-09-05T08:51:33.337Z,2.30
2022-09-05T08:54:20.021Z,2.47
2022-09-05T08:56:58.339Z,2.08
2022-09-05T08:59:45.815Z,2.08
2022-09-05T09:03:03.806Z,2.17
2022-09-05T09:06:13.931Z,2.13
2022-09-05T09:08:55.023Z,2.47
2022-09-05T09:11:32.228Z,2.53
2022-09-05T09:14:31.037Z,2.25
2022-09-05T09:17:05.068Z,1.80
2022-09-05T09:19:46.433Z,2.10
2022-09-05T09:22:25.120Z,2.08
2022-09-05T09:25:14.295Z,1.90
2022-09-05T09:28:47.477Z,1.90
2022-09-05T09:31:36.817Z,2.08
2022-09-05T09:34:39.641Z,1.88
2022-09-05T09:37:50.877Z,2.17
2022-09-05T09:41:03.281Z,1.80
2022-09-05T09:43:52.963Z,1.90
2022-09-05T09:46:39.349Z,1.90
2022-09-05T09:49:37.823Z,2.00
2022-09-05T09:52:42.865Z,1.98
2022-09-05T09:55:49.849Z,1.90
2022-09-05T09:58:32.869Z,1.80
2022-09-05T10:01:34.817Z,2.13
2022-09-05T10:10:36.059Z,1.70
2022-09-05T10:10:54.003Z,1.70
2022-09-05T10:11:40.169Z,1.73
2022-09-05T10:14:49.005Z,1.63
2022-09-05T10:17:39.668Z,1.52
2022-09-05T10:20:40.579Z,1.70
2022-09-05T10:23:44.670Z,1.67
2022-09-05T10:26:53.107Z,1.60
2022-09-05T10:29:43.780Z,1.60
2022-09-05T10:35:04.548Z,1.60
2022-09-05T10:35:22.365Z,1.80
2022-09-05T10:37:58.226Z,1.77
2022-09-05T10:40:29.352Z,1.45
2022-09-05T10:43:14.098Z,1.63
2022-09-05T10:45:49.509Z,1.50
2022-09-05T10:48:24.336Z,1.48
2022-09-05T10:51:00.576Z,1.55
2022-09-05T10:53:44.693Z,1.70
2022-09-05T10:56:16.209Z,1.73
2022-09-05T11:01:43.189Z,1.65
2022-09-05T11:02:23.408Z,1.80
2022-09-05T11:04:54.379Z,1.60
2022-09-05T11:07:32.088Z,1.30
2022-09-05T11:10:08.129Z,1.40
2022-09-05T11:12:57.692Z,1.60
2022-09-05T11:15:33.954Z,1.45
2022-09-05T11:18:05.296Z,1.45
2022-09-05T11:20:48.371Z,1.60
2022-09-05T11:23:21.976Z,1.67
2022-09-05T11:26:00.746Z,1.80
2022-09-05T11:28:40.335Z,1.63
2022-09-05T11:32:05.791Z,1.55
2022-09-05T11:39:45.935Z,1.50
2022-09-05T11:39:54.718Z,1.77
2022-09-05T11:41:42.848Z,1.60
2022-09-05T11:44:29.662Z,1.63
2022-09-05T11:47:51.437Z,2.10
2022-09-05T11:50:46.379Z,1.80
2022-09-05T11:54:04.136Z,1.90
2022-09-05T11:57:32.638Z,1.90
2022-09-05T12:00:32.775Z,2.07
2022-09-05T12:03:59.393Z,1.90
2022-09-05T12:07:15.585Z,1.70
2022-09-05T12:10:09.908Z,1.77
2022-09-05T12:13:17.667Z,1.60
2022-09-05T12:16:08.076Z,1.70
2022-09-05T12:18:45.680Z,2.50
2022-09-05T12:21:29.139Z,2.40
2022-09-05T12:25:16.592Z,1.80
2022-09-05T12:27:39.697Z,2.20
2022-09-05T12:29:59.978Z,1.93
2022-09-05T12:35:44.064Z,2.00
2022-09-05T12:36:03.852Z,1.83
2022-09-05T12:40:35.601Z,1.97
2022-09-05T12:41:45.236Z,1.60
2022-09-05T12:44:45.359Z,1.70
2022-09-05T12:47:16.839Z,1.87
2022-09-05T12:50:02.470Z,1.67
2022-09-05T12:52:42.831Z,1.70
2022-09-05T12:55:22.522Z,2.00
2022-09-05T13:00:41.157Z,1.80
2022-09-05T13:03:08.113Z,2.00
2022-09-05T13:03:53.329Z,2.00
2022-09-05T13:06:32.401Z,1.73
2022-09-05T13:09:06.931Z,1.90
2022-09-05T13:14:55.026Z,2.20
2022-09-05T13:15:00.654Z,2.00
2022-09-05T13:17:43.111Z,1.97
2022-09-05T13:20:19.979Z,1.70
2022-09-05T13:22:51.662Z,1.80
2022-09-05T13:25:27.808Z,1.90
2022-09-05T13:28:06.284Z,1.90
2022-09-05T13:37:59.639Z,1.90
2022-09-05T13:38:02.654Z,1.87
2022-09-05T13:38:13.926Z,1.70
2022-09-05T13:39:22.882Z,2.10
2022-09-05T13:41:59.366Z,2.00
2022-09-05T13:44:30.037Z,2.27
2022-09-05T13:47:28.872Z,2.00
2022-09-05T13:50:00.173Z,2.00
2022-09-05T13:52:38.186Z,1.93
2022-09-05T13:55:23.167Z,1.63
2022-09-05T13:57:57.159Z,1.70
2022-09-05T14:00:53.157Z,1.70
2022-09-05T14:04:06.113Z,1.90
2022-09-05T14:07:43.888Z,2.00
2022-09-05T14:10:01.448Z,1.80
2022-09-05T14:12:37.726Z,1.83
2022-09-05T14:15:19.044Z,1.57
2022-09-05T14:18:17.787Z,2.00
2022-09-05T14:21:13.294Z,2.00
2022-09-05T14:23:53.332Z,1.90
2022-09-05T14:26:28.820Z,2.00
2022-09-05T14:29:07.201Z,2.00
2022-09-05T14:37:36.882Z,1.90
2022-09-05T14:37:43.228Z,1.77
2022-09-05T14:38:05.788Z,1.80
2022-09-05T14:41:04.739Z,1.80
2022-09-05T14:44:19.969Z,1.83
2022-09-05T14:47:06.975Z,1.90
2022-09-05T14:50:04.143Z,1.77
2022-09-05T14:52:35.498Z,2.00
2022-09-05T15:02:42.069Z,1.63
2022-09-05T15:02:43.899Z,1.37
2022-09-05T15:06:39.488Z,1.60
2022-09-05T15:11:23.965Z,1.60
2022-09-05T15:12:26.086Z,1.67
2022-09-05T15:15:00.422Z,1.50
2022-09-05T15:17:29.726Z,1.67
2022-09-05T15:20:05.795Z,1.70
2022-09-05T15:22:36.541Z,1.70
2022-09-05T15:25:17.297Z,1.90
2022-09-05T15:27:47.155Z,1.60
2022-09-05T15:30:21.341Z,1.47
2022-09-05T15:32:50.737Z,1.40
2022-09-05T15:35:37.206Z,1.70
2022-09-05T15:38:29.169Z,1.80
2022-09-05T15:41:07.941Z,1.53
2022-09-05T15:43:38.708Z,1.50
2022-09-05T15:46:08.343Z,1.50
2022-09-05T15:48:39.568Z,1.50
2022-09-05T15:51:18.758Z,1.50
2022-09-05T15:53:52.087Z,1.53
2022-09-05T15:56:25.283Z,1.60
2022-09-05T15:58:56.722Z,2.07
2022-09-05T16:01:48.545Z,1.50
2022-09-05T16:07:28.039Z,1.53
2022-09-05T16:10:35.355Z,1.60
2022-09-05T16:10:39.232Z,1.50
2022-09-05T16:12:52.511Z,1.60
2022-09-05T16:19:22.125Z,1.70
2022-09-05T16:23:18.081Z,1.30
2022-09-05T16:23:32.502Z,1.67
2022-09-05T16:24:05.911Z,1.60
2022-09-05T16:26:40.578Z,1.80
2022-09-05T16:29:19.480Z,1.70
2022-09-05T16:32:08.317Z,1.70
2022-09-05T16:34:44.565Z,1.80
2022-09-05T16:37:14.855Z,1.90
2022-09-05T16:39:49.482Z,1.60
2022-09-05T16:42:45.983Z,1.60
2022-09-05T16:45:22.049Z,1.80
2022-09-05T16:48:00.391Z,1.97
2022-09-05T16:50:34.790Z,1.80
2022-09-05T16:53:30.774Z,1.90
2022-09-05T16:56:11.047Z,1.60
2022-09-05T16:58:41.524Z,1.60
2022-09-05T17:01:41.433Z,1.80
2022-09-05T17:04:20.809Z,1.50
2022-09-05T17:06:55.489Z,1.70
2022-09-05T17:09:25.758Z,1.50
2022-09-05T17:12:00.589Z,1.60
2022-09-05T17:14:36.107Z,2.00
2022-09-05T17:17:37.518Z,2.10
2022-09-05T17:20:06.108Z,1.80
2022-09-05T17:25:40.113Z,2.07
2022-09-05T17:29:25.253Z,2.30
2022-09-05T17:29:30.722Z,2.10
2022-09-05T17:31:56.140Z,1.90
2022-09-05T17:34:49.566Z,1.90
2022-09-05T17:37:42.772Z,1.90
2022-09-05T17:40:48.175Z,2.03
2022-09-05T17:43:28.823Z,2.10
2022-09-05T17:46:13.132Z,1.90
2022-09-05T17:49:18.255Z,2.10
2022-09-05T17:52:22.932Z,1.87
2022-09-05T17:54:57.687Z,2.00
2022-09-05T17:57:36.085Z,2.30
2022-09-05T18:00:47.608Z,2.13
2022-09-05T18:04:16.070Z,3.00
2022-09-05T18:06:59.658Z,2.20
2022-09-05T18:10:12.235Z,2.20
2022-09-05T18:13:31.030Z,2.33
2022-09-05T18:16:10.526Z,2.40
2022-09-05T18:19:28.265Z,2.17
2022-09-05T18:21:49.525Z,2.37
2022-09-05T18:24:33.267Z,2.53
2022-09-05T18:30:07.057Z,2.60
2022-09-05T18:32:45.065Z,2.70
2022-09-05T18:35:37.201Z,2.70
2022-09-05T18:38:27.513Z,2.40
2022-09-05T18:41:21.813Z,2.60
2022-09-05T18:44:14.091Z,2.27
2022-09-05T18:46:50.534Z,2.37
2022-09-05T18:50:22.688Z,2.70
2022-09-05T18:52:23.614Z,2.70
2022-09-05T18:56:08.904Z,2.20
2022-09-05T18:57:51.789Z,2.70
2022-09-05T19:00:44.323Z,2.90
2022-09-05T19:03:18.994Z,2.50
2022-09-05T19:05:51.475Z,2.77
2022-09-05T19:08:28.949Z,2.97
2022-09-05T19:11:27.525Z,3.03
2022-09-05T19:14:25.253Z,3.03
2022-09-05T19:16:47.815Z,2.90
2022-09-05T19:19:18.998Z,2.73
2022-09-05T19:22:33.319Z,2.70
2022-09-05T19:24:46.667Z,2.70
2022-09-05T19:32:17.252Z,2.70
2022-09-05T19:36:59.347Z,3.00
2022-09-05T19:37:02.641Z,3.20
2022-09-05T19:37:09.248Z,2.73
2022-09-05T19:39:49.411Z,2.87
2022-09-05T19:47:34.177Z,3.20
2022-09-05T19:47:35.381Z,3.00
2022-09-05T19:48:03.888Z,3.10
2022-09-05T19:50:21.767Z,2.93
2022-09-05T19:52:53.840Z,2.90
2022-09-05T19:55:24.313Z,3.40
2022-09-05T19:58:28.963Z,2.90
2022-09-05T20:00:50.442Z,3.37
2022-09-05T20:03:39.288Z,3.13
2022-09-05T20:06:29.033Z,3.20
2022-09-05T20:09:09.971Z,3.30
2022-09-05T20:11:45.812Z,2.90
2022-09-05T20:14:20.668Z,3.20
2022-09-05T20:16:49.986Z,3.13
2022-09-05T20:19:32.567Z,3.37
2022-09-05T20:22:12.773Z,3.70
2022-09-05T20:24:52.940Z,3.73
2022-09-05T20:27:27.296Z,3.70
2022-09-05T20:29:58.989Z,3.73
2022-09-05T20:32:38.576Z,3.60
2022-09-05T20:39:29.278Z,3.67
2022-09-05T20:43:21.746Z,3.63
2022-09-05T20:43:30.176Z,3.90
2022-09-05T20:43:56.526Z,3.70
2022-09-05T20:50:26.046Z,3.90
2022-09-05T20:54:18.418Z,3.40
2022-09-05T20:54:21.141Z,4.00
2022-09-05T20:55:38.696Z,3.73
2022-09-05T20:58:11.632Z,3.77
2022-09-05T21:01:15.577Z,3.70
2022-09-05T21:03:36.600Z,4.23
2022-09-05T21:06:12.766Z,3.30
2022-09-05T21:08:42.881Z,4.00
2022-09-05T21:11:12.601Z,3.67
2022-09-05T21:13:52.510Z,3.40
2022-09-05T21:16:23.466Z,3.50
2022-09-05T21:18:52.902Z,3.80
2022-09-05T21:21:29.555Z,3.83
2022-09-05T21:24:18.025Z,3.80
2022-09-05T21:26:49.068Z,4.03
2022-09-05T21:29:27.583Z,3.50
2022-09-05T21:32:19.708Z,3.87
2022-09-05T21:34:52.793Z,4.10
2022-09-05T21:37:21.810Z,4.10
2022-09-05T21:39:59.822Z,4.37
2022-09-05T21:47:38.636Z,4.10
2022-09-05T21:47:48.043Z,4.00
2022-09-05T21:48:11.771Z,4.20
2022-09-05T21:50:42.955Z,4.20
2022-09-05T21:54:38.145Z,4.50
2022-09-05T21:59:18.250Z,4.50
2022-09-05T21:59:36.717Z,4.37
2022-09-05T22:02:08.654Z,4.77
2022-09-05T22:04:41.659Z,4.70
2022-09-05T22:07:24.287Z,4.63
2022-09-05T22:10:01.143Z,4.37
2022-09-05T22:12:37.905Z,4.70
2022-09-05T22:15:26.741Z,4.57
2022-09-05T22:18:00.989Z,4.97
2022-09-05T22:20:53.427Z,4.70
2022-09-05T22:23:39.382Z,5.23
2022-09-05T22:26:07.971Z,4.70
2022-09-05T22:28:46.382Z,4.80
2022-09-05T22:31:17.301Z,5.00
2022-09-05T22:55:02.863Z,4.70
2022-09-05T22:57:30.900Z,5.27
2022-09-05T23:00:00.317Z,5.67
2022-09-05T23:02:28.448Z,5.80
2022-09-05T23:04:56.553Z,5.97
2022-09-05T23:07:25.645Z,6.10
2022-09-05T23:09:53.785Z,6.17
2022-09-05T23:12:21.838Z,5.67
2022-09-05T23:14:49.909Z,5.43
2022-09-05T23:17:19.327Z,5.53
2022-09-05T23:19:47.638Z,5.90
2022-09-05T23:22:17.831Z,6.23
2022-09-05T23:24:45.938Z,5.97
2022-09-05T23:27:13.995Z,5.97
2022-09-05T23:29:42.018Z,6.50
2022-09-05T23:32:10.555Z,5.80
2022-09-05T23:34:40.133Z,6.50
2022-09-05T23:37:10.291Z,6.33
2022-09-05T23:39:38.553Z,5.93
2022-09-05T23:42:06.820Z,6.40
2022-09-05T23:44:35.019Z,6.60
2022-09-05T23:47:03.052Z,7.23
2022-09-05T23:49:31.065Z,7.10
2022-09-05T23:52:00.610Z,6.60
2022-09-05T23:54:31.233Z,7.10
2022-09-05T23:57:02.306Z,6.77
2022-09-05T23:59:30.690Z,7.97
